createdAt,value
2022-11-30T00:00:27.752Z,0.20
2022-11-30T00:01:27.736Z,0.20
2022-11-30T00:02:27.843Z,0.10
2022-11-30T00:03:27.738Z,0.20
2022-11-30T00:04:27.688Z,0.20
2022-11-30T00:05:27.675Z,0.20
2022-11-30T00:06:27.691Z,0.20
2022-11-30T00:07:27.754Z,0.20
2022-11-30T00:08:27.626Z,0.10
2022-11-30T00:09:27.609Z,0.20
2022-11-30T00:10:27.626Z,0.20
2022-11-30T00:11:27.601Z,0.70
2022-11-30T00:12:27.644Z,0.10
2022-11-30T00:13:27.569Z,0.70
2022-11-30T00:14:27.555Z,0.10
2022-11-30T00:15:27.542Z,0.20
2022-11-30T00:16:27.693Z,0.10
2022-11-30T00:17:27.540Z,0.20
2022-11-30T00:18:27.512Z,0.20
2022-11-30T00:19:27.529Z,0.20
2022-11-30T00:20:27.501Z,0.20
2022-11-30T00:21:27.499Z,0.20
2022-11-30T00:22:27.535Z,0.70
2022-11-30T00:23:27.462Z,0.20
2022-11-30T00:24:27.454Z,0.30
2022-11-30T00:25:27.455Z,0.20
2022-11-30T00:26:27.432Z,0.20
2022-11-30T00:27:27.433Z,0.20
2022-11-30T00:28:27.439Z,0.20
2022-11-30T00:29:27.407Z,0.20
2022-11-30T00:30:27.445Z,0.20
2022-11-30T00:31:27.427Z,0.20
2022-11-30T00:32:27.368Z,0.20
2022-11-30T00:33:27.388Z,0.30
2022-11-30T00:34:27.343Z,0.20
2022-11-30T00:35:27.342Z,0.20
2022-11-30T00:36:27.346Z,0.20
2022-11-30T00:37:27.357Z,0.20
2022-11-30T00:38:27.337Z,0.20
2022-11-30T00:39:31.047Z,0.20
2022-11-30T00:40:28.280Z,0.20
2022-11-30T00:41:27.294Z,0.20
2022-11-30T00:42:27.261Z,0.20
2022-11-30T00:43:27.258Z,0.20
2022-11-30T00:44:27.236Z,0.20
2022-11-30T00:45:27.263Z,0.30
2022-11-30T00:46:27.289Z,0.20
2022-11-30T00:47:27.221Z,0.10
2022-11-30T00:48:27.187Z,0.20
2022-11-30T00:49:27.196Z,0.20
2022-11-30T00:50:27.181Z,16.70
2022-11-30T00:51:27.172Z,14.30
2022-11-30T00:52:27.213Z,17.20
2022-11-30T00:53:27.200Z,15.50
2022-11-30T00:54:27.136Z,17.00
2022-11-30T00:55:27.122Z,16.40
2022-11-30T00:56:27.102Z,15.70
2022-11-30T00:57:27.128Z,14.80
2022-11-30T00:58:27.081Z,15.10
2022-11-30T00:59:27.076Z,14.00
2022-11-30T01:00:27.096Z,20.50
2022-11-30T01:01:27.147Z,23.20
2022-11-30T01:02:27.156Z,11.50
2022-11-30T01:03:27.041Z,14.60
2022-11-30T01:04:27.144Z,12.60
2022-11-30T01:05:27.035Z,13.10
2022-11-30T01:06:27.016Z,13.30
2022-11-30T01:07:27.053Z,13.00
2022-11-30T01:08:27.608Z,12.50
2022-11-30T01:09:26.992Z,13.30
2022-11-30T01:10:26.966Z,16.40
2022-11-30T01:11:26.959Z,14.50
2022-11-30T01:12:26.968Z,16.40
2022-11-30T01:13:26.939Z,15.20
2022-11-30T01:14:26.910Z,16.90
2022-11-30T01:15:27.017Z,18.70
2022-11-30T01:16:26.939Z,11.70
2022-11-30T01:17:26.939Z,11.70
2022-11-30T01:18:26.867Z,13.80
2022-11-30T01:19:26.859Z,17.80
2022-11-30T01:20:26.932Z,15.00
2022-11-30T01:21:26.845Z,13.70
2022-11-30T01:22:26.845Z,11.10
2022-11-30T01:23:26.901Z,15.10
2022-11-30T01:24:26.822Z,10.90
2022-11-30T01:25:26.817Z,12.90
2022-11-30T01:26:26.783Z,15.00
2022-11-30T01:27:27.777Z,12.20
2022-11-30T01:28:26.777Z,11.60
2022-11-30T01:29:26.768Z,10.90
2022-11-30T01:30:26.740Z,11.80
2022-11-30T01:31:26.787Z,9.60
2022-11-30T01:32:26.772Z,11.60
2022-11-30T01:33:26.714Z,7.90
2022-11-30T01:34:26.735Z,9.20
2022-11-30T01:35:26.690Z,13.80
2022-11-30T01:36:26.682Z,12.10
2022-11-30T01:37:26.688Z,9.20
2022-11-30T01:38:26.685Z,10.10
2022-11-30T01:39:26.645Z,14.70
2022-11-30T01:40:26.673Z,7.70
2022-11-30T01:41:26.639Z,20.10
2022-11-30T01:42:26.638Z,9.20
2022-11-30T01:43:26.609Z,11.90
2022-11-30T01:44:26.611Z,14.90
2022-11-30T01:45:26.747Z,13.00
2022-11-30T01:46:26.629Z,10.20
2022-11-30T01:47:26.926Z,11.90
2022-11-30T01:48:26.548Z,12.30
2022-11-30T01:49:26.538Z,8.70
2022-11-30T01:50:26.550Z,13.90
2022-11-30T01:51:26.571Z,22.40
2022-11-30T01:52:26.509Z,13.80
2022-11-30T01:53:26.501Z,21.20
2022-11-30T01:54:26.484Z,13.20
2022-11-30T01:55:26.510Z,10.10
2022-11-30T01:56:26.597Z,9.30
2022-11-30T01:57:26.512Z,9.20
2022-11-30T01:58:26.471Z,11.50
2022-11-30T01:59:26.435Z,13.60
2022-11-30T02:00:26.448Z,12.50
2022-11-30T02:01:26.480Z,9.80
2022-11-30T02:02:26.677Z,8.20
2022-11-30T02:03:26.392Z,13.00
2022-11-30T02:04:26.380Z,14.00
2022-11-30T02:05:26.369Z,12.20
2022-11-30T02:06:26.411Z,12.00
2022-11-30T02:07:26.685Z,13.00
2022-11-30T02:08:26.552Z,19.40
2022-11-30T02:09:26.339Z,18.10
2022-11-30T02:10:26.320Z,16.70
2022-11-30T02:11:26.306Z,16.30
2022-11-30T02:12:26.338Z,20.30
2022-11-30T02:13:26.431Z,17.30
2022-11-30T02:14:26.335Z,12.40
2022-11-30T02:15:26.303Z,8.10
2022-11-30T02:16:26.264Z,11.00
2022-11-30T02:17:26.266Z,14.40
2022-11-30T02:18:26.268Z,8.00
2022-11-30T02:19:26.246Z,11.70
2022-11-30T02:20:26.209Z,13.40
2022-11-30T02:21:26.203Z,13.60
2022-11-30T02:22:26.221Z,11.90
2022-11-30T02:23:26.241Z,13.20
2022-11-30T02:24:26.183Z,14.00
2022-11-30T02:25:26.155Z,15.10
2022-11-30T02:26:26.156Z,14.00
2022-11-30T02:27:26.218Z,20.90
2022-11-30T02:28:27.163Z,13.30
2022-11-30T02:29:26.146Z,15.10
2022-11-30T02:30:26.110Z,13.60
2022-11-30T02:31:26.136Z,14.10
2022-11-30T02:32:26.136Z,15.50
2022-11-30T02:33:26.080Z,16.30
2022-11-30T02:34:26.057Z,17.50
2022-11-30T02:35:26.082Z,23.10
2022-11-30T02:36:26.045Z,23.00
2022-11-30T02:37:26.069Z,12.90
2022-11-30T02:38:26.023Z,17.80
2022-11-30T02:39:26.035Z,18.10
2022-11-30T02:40:26.003Z,11.90
2022-11-30T02:41:25.990Z,15.50
2022-11-30T02:42:26.002Z,20.30
2022-11-30T02:43:25.982Z,19.10
2022-11-30T02:44:26.050Z,13.30
2022-11-30T02:45:25.964Z,17.40
2022-11-30T02:46:26.109Z,19.40
2022-11-30T02:47:26.950Z,17.10
2022-11-30T02:48:25.974Z,13.30
2022-11-30T02:49:25.939Z,18.30
2022-11-30T02:50:26.496Z,10.90
2022-11-30T02:51:25.896Z,20.10
2022-11-30T02:52:25.868Z,18.60
2022-11-30T02:53:25.854Z,18.70
2022-11-30T02:54:25.870Z,13.90
2022-11-30T02:55:25.873Z,14.00
2022-11-30T02:56:25.887Z,13.60
2022-11-30T02:57:25.865Z,10.80
2022-11-30T02:58:25.813Z,10.60
2022-11-30T02:59:25.821Z,13.80
2022-11-30T03:00:25.802Z,12.10
2022-11-30T03:01:25.860Z,10.00
2022-11-30T03:02:25.841Z,10.90
2022-11-30T03:03:25.761Z,14.30
2022-11-30T03:04:25.749Z,14.20
2022-11-30T03:05:25.727Z,14.30
2022-11-30T03:06:25.731Z,18.20
2022-11-30T03:07:25.799Z,17.00
2022-11-30T03:08:25.753Z,12.70
2022-11-30T03:09:25.690Z,20.70
2022-11-30T03:10:25.680Z,19.40
2022-11-30T03:11:25.663Z,19.40
2022-11-30T03:12:25.668Z,23.40
2022-11-30T03:13:25.657Z,21.10
2022-11-30T03:14:25.717Z,19.30
2022-11-30T03:15:25.627Z,18.60
2022-11-30T03:16:25.636Z,14.80
2022-11-30T03:17:25.634Z,16.90
2022-11-30T03:18:25.595Z,24.40
2022-11-30T03:19:25.582Z,26.70
2022-11-30T03:20:25.626Z,23.70
2022-11-30T03:21:25.571Z,15.00
2022-11-30T03:22:25.577Z,14.80
2022-11-30T03:23:25.549Z,14.80
2022-11-30T03:24:25.540Z,17.10
2022-11-30T03:25:25.555Z,15.70
2022-11-30T03:26:25.534Z,13.90
2022-11-30T03:27:25.501Z,10.90
2022-11-30T03:28:25.487Z,13.00
2022-11-30T03:29:25.476Z,11.90
2022-11-30T03:30:25.467Z,11.60
2022-11-30T03:31:25.501Z,10.70
2022-11-30T03:32:25.482Z,20.30
2022-11-30T03:33:25.450Z,16.50
2022-11-30T03:34:25.440Z,14.10
2022-11-30T03:35:25.417Z,16.30
2022-11-30T03:36:25.448Z,16.70
2022-11-30T03:37:25.405Z,16.10
2022-11-30T03:38:25.382Z,13.40
2022-11-30T03:39:25.369Z,15.80
2022-11-30T03:40:25.377Z,12.50
2022-11-30T03:41:25.365Z,13.50
2022-11-30T03:42:25.394Z,11.30
2022-11-30T03:43:25.335Z,20.00
2022-11-30T03:44:25.314Z,12.10
2022-11-30T03:45:25.307Z,14.90
2022-11-30T03:46:25.368Z,10.90
2022-11-30T03:47:25.350Z,11.80
2022-11-30T03:48:25.281Z,14.40
2022-11-30T03:49:25.285Z,14.40
2022-11-30T03:50:25.275Z,11.80
2022-11-30T03:51:25.253Z,14.70
2022-11-30T03:52:25.264Z,11.60
2022-11-30T03:53:25.257Z,12.60
2022-11-30T03:54:25.212Z,12.60
2022-11-30T03:55:25.198Z,10.50
2022-11-30T03:56:25.193Z,10.50
2022-11-30T03:57:25.193Z,15.10
2022-11-30T03:58:25.168Z,11.30
2022-11-30T03:59:25.151Z,11.40
2022-11-30T04:00:25.163Z,17.00
2022-11-30T04:01:25.269Z,9.50
2022-11-30T04:02:25.336Z,9.40
2022-11-30T04:03:25.120Z,9.90
2022-11-30T04:04:25.124Z,9.30
2022-11-30T04:05:25.115Z,19.00
2022-11-30T04:06:25.081Z,14.10
2022-11-30T04:07:25.149Z,14.70
2022-11-30T04:08:25.077Z,11.60
2022-11-30T04:09:25.046Z,13.60
2022-11-30T04:10:25.044Z,12.20
2022-11-30T04:11:25.026Z,15.40
2022-11-30T04:12:25.032Z,12.40
2022-11-30T04:13:25.004Z,19.20
2022-11-30T04:14:25.015Z,20.80
2022-11-30T04:15:24.980Z,26.60
2022-11-30T04:16:25.040Z,20.70
2022-11-30T04:17:24.992Z,19.20
2022-11-30T04:18:24.950Z,13.90
2022-11-30T04:19:24.978Z,13.40
2022-11-30T04:20:24.933Z,20.20
2022-11-30T04:21:24.940Z,16.30
2022-11-30T04:22:24.932Z,23.20
2022-11-30T04:23:24.935Z,17.50
2022-11-30T04:24:24.884Z,17.80
2022-11-30T04:25:24.876Z,106.60
2022-11-30T04:26:24.882Z,97.60
2022-11-30T04:27:24.869Z,28.30
2022-11-30T04:28:24.857Z,54.20
2022-11-30T04:29:24.829Z,14.90
2022-11-30T04:30:24.825Z,17.10
2022-11-30T04:31:24.845Z,12.20
2022-11-30T04:32:24.828Z,14.90
2022-11-30T04:33:24.799Z,13.30
2022-11-30T04:34:24.822Z,11.00
2022-11-30T04:35:24.795Z,12.70
2022-11-30T04:36:24.760Z,10.30
2022-11-30T04:37:24.897Z,10.30
2022-11-30T04:38:24.749Z,8.30
2022-11-30T04:39:24.771Z,7.50
2022-11-30T04:40:24.736Z,10.50
2022-11-30T04:41:24.705Z,9.20
2022-11-30T04:42:24.726Z,7.60
2022-11-30T04:43:24.755Z,9.40
2022-11-30T04:44:24.675Z,8.30
2022-11-30T04:45:24.701Z,17.40
2022-11-30T04:46:24.805Z,8.20
2022-11-30T04:47:24.669Z,7.90
2022-11-30T04:48:24.658Z,6.70
2022-11-30T04:49:24.617Z,9.00
2022-11-30T04:50:24.615Z,11.30
2022-11-30T04:51:24.612Z,8.50
2022-11-30T04:52:24.608Z,8.20
2022-11-30T04:53:24.595Z,8.40
2022-11-30T04:54:24.609Z,14.20
2022-11-30T04:55:24.553Z,9.10
2022-11-30T04:56:24.548Z,10.60
2022-11-30T04:57:24.579Z,6.90
2022-11-30T04:58:24.522Z,9.00
2022-11-30T04:59:24.545Z,8.00
2022-11-30T05:00:24.509Z,9.70
2022-11-30T05:01:24.539Z,9.80
2022-11-30T05:02:24.581Z,10.50
2022-11-30T05:03:24.473Z,6.10
2022-11-30T05:04:24.513Z,9.00
2022-11-30T05:05:24.462Z,9.00
2022-11-30T05:06:24.437Z,7.50
2022-11-30T05:07:24.503Z,6.90
2022-11-30T05:08:24.433Z,6.90
2022-11-30T05:09:24.429Z,6.60
2022-11-30T05:10:24.404Z,8.00
2022-11-30T05:11:24.387Z,7.60
2022-11-30T05:12:24.396Z,6.90
2022-11-30T05:13:24.376Z,7.20
2022-11-30T05:14:24.349Z,7.90
2022-11-30T05:15:24.385Z,7.80
2022-11-30T05:16:24.427Z,9.80
2022-11-30T05:17:24.343Z,11.30
2022-11-30T05:18:24.324Z,9.00
2022-11-30T05:19:24.298Z,7.20
2022-11-30T05:20:24.317Z,6.30
2022-11-30T05:21:24.278Z,7.00
2022-11-30T05:22:24.304Z,9.10
2022-11-30T05:23:24.273Z,7.40
2022-11-30T05:24:24.282Z,7.50
2022-11-30T05:25:24.251Z,7.80
2022-11-30T05:26:24.247Z,7.00
2022-11-30T05:27:24.241Z,10.80
2022-11-30T05:28:24.211Z,8.20
2022-11-30T05:29:24.239Z,6.70
2022-11-30T05:30:24.189Z,8.70
2022-11-30T05:31:24.274Z,9.80
2022-11-30T05:32:24.184Z,9.20
2022-11-30T05:33:24.163Z,6.30
2022-11-30T05:34:24.156Z,6.30
2022-11-30T05:35:24.129Z,8.60
2022-11-30T05:36:24.163Z,10.40
2022-11-30T05:37:24.121Z,6.70
2022-11-30T05:38:24.101Z,8.20
2022-11-30T05:39:24.127Z,6.60
2022-11-30T05:40:24.094Z,9.60
2022-11-30T05:41:24.089Z,8.00
2022-11-30T05:42:24.053Z,8.80
2022-11-30T05:43:24.065Z,7.60
2022-11-30T05:44:24.065Z,7.40
2022-11-30T05:45:24.065Z,7.10
2022-11-30T05:46:24.064Z,8.30
2022-11-30T05:47:23.996Z,6.10
2022-11-30T05:48:24.053Z,7.50
2022-11-30T05:49:23.980Z,8.80
2022-11-30T05:50:23.986Z,6.90
2022-11-30T05:51:23.955Z,7.60
2022-11-30T05:52:23.970Z,5.90
2022-11-30T05:53:23.960Z,7.50
2022-11-30T05:54:23.922Z,6.60
2022-11-30T05:55:23.917Z,9.20
2022-11-30T05:56:23.913Z,6.90
2022-11-30T05:57:23.969Z,8.80
2022-11-30T05:58:23.894Z,7.10
2022-11-30T05:59:23.878Z,6.60
2022-11-30T06:00:23.876Z,6.00
2022-11-30T06:01:23.867Z,9.80
2022-11-30T06:02:28.178Z,8.20
2022-11-30T06:03:23.961Z,7.60
2022-11-30T06:04:23.828Z,7.60
2022-11-30T06:05:23.807Z,7.30
2022-11-30T06:06:23.803Z,10.10
2022-11-30T06:07:23.902Z,7.20
2022-11-30T06:08:23.796Z,9.30
2022-11-30T06:09:23.786Z,5.90
2022-11-30T06:10:23.754Z,7.10
2022-11-30T06:11:23.742Z,6.60
2022-11-30T06:12:23.799Z,6.80
2022-11-30T06:13:28.704Z,9.00
2022-11-30T06:14:24.733Z,9.40
2022-11-30T06:15:23.723Z,8.00
2022-11-30T06:16:23.748Z,7.20
2022-11-30T06:17:23.689Z,16.30
2022-11-30T06:18:23.664Z,9.60
2022-11-30T06:19:23.662Z,10.20
2022-11-30T06:20:23.664Z,11.00
2022-11-30T06:21:24.837Z,8.50
2022-11-30T06:22:23.645Z,8.80
2022-11-30T06:23:23.618Z,10.20
2022-11-30T06:24:23.604Z,15.90
2022-11-30T06:25:23.614Z,14.80
2022-11-30T06:26:23.582Z,14.80
2022-11-30T06:27:23.583Z,9.60
2022-11-30T06:28:23.564Z,14.00
2022-11-30T06:29:23.604Z,8.60
2022-11-30T06:30:23.546Z,16.40
2022-11-30T06:31:23.559Z,13.30
2022-11-30T06:32:23.554Z,19.30
2022-11-30T06:33:23.508Z,10.00
2022-11-30T06:34:23.497Z,18.60
2022-11-30T06:35:23.487Z,15.00
2022-11-30T06:36:23.480Z,11.70
2022-11-30T06:37:23.510Z,10.90
2022-11-30T06:38:23.473Z,13.60
2022-11-30T06:39:50.163Z,7.70
2022-11-30T06:40:24.471Z,12.40
2022-11-30T06:41:23.451Z,10.90
2022-11-30T06:42:23.472Z,7.50
2022-11-30T06:43:23.403Z,7.20
2022-11-30T06:44:23.388Z,6.90
2022-11-30T06:45:23.427Z,10.40
2022-11-30T06:46:23.374Z,9.10
2022-11-30T06:47:23.414Z,11.10
2022-11-30T06:48:23.367Z,7.20
2022-11-30T06:49:23.362Z,7.70
2022-11-30T06:50:23.491Z,7.30
2022-11-30T06:51:23.315Z,10.60
2022-11-30T06:52:23.332Z,8.90
2022-11-30T06:53:23.305Z,8.30
2022-11-30T06:54:23.279Z,6.10
2022-11-30T06:55:23.318Z,6.80
2022-11-30T06:56:23.311Z,6.80
2022-11-30T06:57:23.282Z,8.00
2022-11-30T06:58:23.241Z,7.20
2022-11-30T06:59:23.264Z,7.10
2022-11-30T07:00:23.248Z,9.50
2022-11-30T07:01:23.325Z,7.30
2022-11-30T07:02:23.237Z,9.10
2022-11-30T07:03:23.332Z,6.10
2022-11-30T07:04:23.228Z,7.40
2022-11-30T07:05:23.177Z,10.70
2022-11-30T07:06:23.185Z,7.60
2022-11-30T07:07:23.237Z,7.40
2022-11-30T07:08:23.260Z,9.00
2022-11-30T07:09:23.207Z,8.90
2022-11-30T07:10:23.134Z,7.10
2022-11-30T07:11:23.118Z,8.00
2022-11-30T07:12:23.108Z,7.80
2022-11-30T07:13:23.124Z,9.40
2022-11-30T07:14:23.077Z,7.40
2022-11-30T07:15:23.093Z,7.00
2022-11-30T07:16:23.148Z,11.20
2022-11-30T07:17:23.104Z,10.20
2022-11-30T07:18:27.068Z,11.30
2022-11-30T07:19:24.021Z,8.90
2022-11-30T07:20:23.032Z,9.70
2022-11-30T07:21:23.006Z,10.30
2022-11-30T07:22:23.011Z,9.30
2022-11-30T07:23:23.010Z,13.70
2022-11-30T07:24:22.966Z,10.50
2022-11-30T07:25:23.004Z,6.30
2022-11-30T07:26:22.942Z,8.90
2022-11-30T07:27:22.971Z,8.00
2022-11-30T07:28:22.921Z,6.60
2022-11-30T07:29:22.971Z,9.10
2022-11-30T07:30:22.909Z,7.80
2022-11-30T07:31:22.983Z,9.50
2022-11-30T07:32:22.927Z,6.30
2022-11-30T07:33:22.910Z,6.40
2022-11-30T07:34:22.874Z,7.60
2022-11-30T07:35:22.904Z,9.50
2022-11-30T07:36:22.836Z,6.40
2022-11-30T07:37:22.860Z,7.90
2022-11-30T07:38:22.929Z,7.80
2022-11-30T07:39:22.842Z,7.10
2022-11-30T07:40:22.860Z,6.40
2022-11-30T07:41:22.829Z,8.70
2022-11-30T07:42:22.794Z,10.50
2022-11-30T07:43:22.761Z,8.50
2022-11-30T07:44:22.784Z,8.90
2022-11-30T07:45:22.758Z,7.10
2022-11-30T07:46:22.834Z,11.00
2022-11-30T07:47:22.738Z,13.60
2022-11-30T07:48:22.728Z,13.10
2022-11-30T07:49:22.721Z,14.10
2022-11-30T07:50:22.687Z,12.70
2022-11-30T07:51:22.686Z,14.80
2022-11-30T07:52:22.701Z,14.10
2022-11-30T07:53:22.655Z,14.90
2022-11-30T07:54:22.662Z,10.50
2022-11-30T07:55:22.691Z,9.40
2022-11-30T07:56:22.662Z,8.80
2022-11-30T07:57:22.647Z,7.90
2022-11-30T07:58:22.624Z,9.70
2022-11-30T07:59:22.591Z,11.60
2022-11-30T08:00:22.595Z,10.90
2022-11-30T08:01:22.726Z,12.40
2022-11-30T08:02:22.777Z,11.00
2022-11-30T08:03:22.565Z,11.40
2022-11-30T08:04:22.663Z,10.60
2022-11-30T08:05:22.553Z,12.70
2022-11-30T08:06:22.517Z,11.10
2022-11-30T08:07:22.565Z,10.10
2022-11-30T08:08:22.495Z,7.10
2022-11-30T08:09:22.515Z,6.70
2022-11-30T08:10:22.551Z,9.40
2022-11-30T08:11:22.483Z,8.60
2022-11-30T08:12:22.478Z,8.60
2022-11-30T08:13:22.443Z,10.90
2022-11-30T08:14:22.447Z,9.90
2022-11-30T08:15:26.128Z,10.70
2022-11-30T08:16:23.645Z,11.50
2022-11-30T08:17:22.414Z,8.10
2022-11-30T08:18:22.434Z,7.90
2022-11-30T08:19:22.406Z,8.20
2022-11-30T08:20:22.372Z,11.30
2022-11-30T08:21:22.383Z,13.00
2022-11-30T08:22:22.406Z,16.90
2022-11-30T08:23:22.336Z,16.60
2022-11-30T08:24:22.384Z,16.00
2022-11-30T08:25:22.319Z,13.40
2022-11-30T08:26:22.336Z,10.40
2022-11-30T08:27:22.302Z,10.90
2022-11-30T08:28:22.297Z,9.60
2022-11-30T08:29:22.300Z,7.50
2022-11-30T08:30:26.440Z,9.00
2022-11-30T08:31:23.669Z,13.60
2022-11-30T08:32:22.256Z,9.60
2022-11-30T08:33:22.259Z,9.10
2022-11-30T08:34:22.332Z,7.90
2022-11-30T08:35:22.221Z,8.90
2022-11-30T08:36:22.197Z,8.40
2022-11-30T08:37:22.225Z,8.30
2022-11-30T08:38:22.200Z,8.00
2022-11-30T08:39:22.174Z,6.70
2022-11-30T08:40:22.160Z,6.80
2022-11-30T08:41:22.166Z,10.70
2022-11-30T08:42:22.203Z,9.00
2022-11-30T08:43:22.136Z,10.40
2022-11-30T08:44:22.114Z,10.90
2022-11-30T08:45:22.103Z,8.40
2022-11-30T08:47:23.129Z,12.10
2022-11-30T08:48:22.088Z,9.70
2022-11-30T08:49:23.893Z,12.20
2022-11-30T08:50:22.099Z,11.80
2022-11-30T08:51:22.048Z,11.90
2022-11-30T08:52:22.051Z,17.00
2022-11-30T08:53:22.036Z,24.20
2022-11-30T08:54:22.019Z,33.70
2022-11-30T08:55:22.015Z,26.30
2022-11-30T08:56:22.021Z,37.50
2022-11-30T08:57:22.004Z,89.80
2022-11-30T08:58:21.964Z,142.20
2022-11-30T08:59:21.994Z,98.50
2022-11-30T09:00:21.940Z,83.70
2022-11-30T09:01:21.954Z,74.70
2022-11-30T09:02:22.011Z,70.50
2022-11-30T09:03:21.912Z,56.60
2022-11-30T09:04:21.915Z,45.70
2022-11-30T09:05:21.886Z,36.70
2022-11-30T09:06:21.873Z,32.60
2022-11-30T09:07:21.965Z,34.80
2022-11-30T09:08:21.874Z,29.20
2022-11-30T09:09:21.875Z,29.30
2022-11-30T09:10:21.955Z,30.20
2022-11-30T09:11:21.822Z,23.90
2022-11-30T09:12:22.006Z,18.80
2022-11-30T09:13:21.814Z,19.00
2022-11-30T09:14:21.917Z,17.30
2022-11-30T09:15:21.786Z,14.60
2022-11-30T09:16:21.823Z,15.50
2022-11-30T09:17:21.793Z,12.40
2022-11-30T09:18:21.781Z,10.80
2022-11-30T09:19:21.764Z,12.60
2022-11-30T09:20:21.720Z,10.60
2022-11-30T09:21:21.711Z,9.30
2022-11-30T09:22:21.813Z,10.10
2022-11-30T09:23:21.703Z,10.80
2022-11-30T09:24:21.700Z,12.70
2022-11-30T09:25:21.693Z,10.30
2022-11-30T09:26:21.678Z,10.70
2022-11-30T09:27:21.702Z,11.40
2022-11-30T09:28:21.681Z,12.00
2022-11-30T09:29:21.646Z,10.80
2022-11-30T09:30:21.625Z,9.10
2022-11-30T09:31:21.617Z,10.50
2022-11-30T09:32:21.641Z,10.60
2022-11-30T09:33:21.586Z,13.80
2022-11-30T09:34:21.624Z,11.50
2022-11-30T09:35:21.559Z,11.40
2022-11-30T09:36:21.548Z,10.70
2022-11-30T09:37:21.589Z,10.40
2022-11-30T09:38:21.572Z,13.40
2022-11-30T09:39:21.536Z,13.10
2022-11-30T09:40:21.539Z,14.40
2022-11-30T09:41:21.583Z,13.30
2022-11-30T09:42:21.503Z,15.40
2022-11-30T09:43:21.546Z,14.00
2022-11-30T09:44:21.481Z,19.80
2022-11-30T09:45:21.503Z,14.80
2022-11-30T09:46:21.475Z,14.20
2022-11-30T09:47:21.668Z,14.00
2022-11-30T09:48:21.424Z,11.60
2022-11-30T09:49:21.472Z,11.20
2022-11-30T09:50:21.856Z,16.00
2022-11-30T09:51:21.389Z,17.00
2022-11-30T09:52:21.392Z,22.60
2022-11-30T09:53:27.655Z,21.50
2022-11-30T09:54:22.368Z,20.20
2022-11-30T09:55:21.350Z,12.10
2022-11-30T09:56:21.361Z,11.40
2022-11-30T09:57:21.366Z,9.10
2022-11-30T09:58:21.450Z,9.30
2022-11-30T09:59:21.490Z,10.00
2022-11-30T10:00:21.292Z,7.90
2022-11-30T10:01:21.915Z,7.90
2022-11-30T10:02:21.472Z,8.30
2022-11-30T10:03:21.442Z,10.20
2022-11-30T10:04:21.254Z,8.60
2022-11-30T10:05:21.237Z,9.90
2022-11-30T10:06:21.242Z,11.10
2022-11-30T10:07:21.397Z,10.50
2022-11-30T10:08:21.495Z,9.10
2022-11-30T10:09:21.217Z,13.10
2022-11-30T10:10:32.211Z,10.80
2022-11-30T10:11:22.175Z,9.00
2022-11-30T10:12:21.811Z,7.70
2022-11-30T10:13:21.223Z,8.40
2022-11-30T10:14:21.179Z,8.80
2022-11-30T10:15:21.214Z,9.50
2022-11-30T10:16:22.122Z,10.90
2022-11-30T10:17:21.678Z,8.30
2022-11-30T10:18:21.107Z,11.50
2022-11-30T10:19:21.130Z,8.20
2022-11-30T10:20:21.077Z,9.30
2022-11-30T10:21:21.065Z,9.10
2022-11-30T10:22:21.091Z,8.70
2022-11-30T10:23:21.051Z,8.80
2022-11-30T10:24:21.064Z,7.00
2022-11-30T10:25:21.599Z,7.60
2022-11-30T10:26:21.826Z,10.10
2022-11-30T10:27:21.056Z,8.90
2022-11-30T10:28:48.740Z,6.90
2022-11-30T10:29:22.032Z,9.70
2022-11-30T10:30:20.976Z,7.10
2022-11-30T10:31:21.073Z,6.10
2022-11-30T10:32:21.043Z,8.20
2022-11-30T10:33:20.964Z,8.00
2022-11-30T10:34:21.639Z,9.00
2022-11-30T10:35:21.370Z,9.10
2022-11-30T10:36:20.907Z,7.80
2022-11-30T10:37:20.922Z,6.30
2022-11-30T10:38:20.900Z,7.90
2022-11-30T10:39:20.887Z,6.50
2022-11-30T10:40:20.897Z,7.90
2022-11-30T10:41:20.888Z,7.40
2022-11-30T10:42:20.891Z,5.30
2022-11-30T10:43:21.712Z,5.30
2022-11-30T10:44:21.123Z,4.50
2022-11-30T10:45:20.943Z,5.60
2022-11-30T10:46:20.927Z,4.20
2022-11-30T10:47:20.821Z,5.40
2022-11-30T10:48:20.864Z,4.70
2022-11-30T10:49:20.803Z,5.20
2022-11-30T10:50:20.766Z,4.50
2022-11-30T10:51:20.835Z,4.20
2022-11-30T10:52:23.568Z,4.30
2022-11-30T10:53:20.739Z,4.50
2022-11-30T10:54:20.749Z,2.80
2022-11-30T10:55:20.706Z,4.90
2022-11-30T10:56:20.698Z,3.10
2022-11-30T10:57:20.772Z,3.80
2022-11-30T10:58:20.746Z,4.40
2022-11-30T10:59:20.714Z,3.40
2022-11-30T11:00:20.720Z,4.10
2022-11-30T11:01:25.679Z,2.90
2022-11-30T11:02:20.783Z,3.20
2022-11-30T11:03:20.618Z,4.10
2022-11-30T11:04:20.682Z,3.10
2022-11-30T11:05:20.712Z,3.00
2022-11-30T11:06:20.629Z,3.80
2022-11-30T11:07:20.809Z,5.80
2022-11-30T11:08:20.677Z,3.00
2022-11-30T11:09:20.619Z,3.40
2022-11-30T11:10:27.038Z,4.30
2022-11-30T11:11:20.589Z,3.70
2022-11-30T11:12:20.651Z,3.80
2022-11-30T11:13:20.509Z,2.90
2022-11-30T11:14:20.508Z,5.80
2022-11-30T11:15:20.499Z,3.70
2022-11-30T11:16:20.574Z,3.10
2022-11-30T11:17:20.568Z,2.60
2022-11-30T11:18:22.179Z,3.70
2022-11-30T11:19:20.650Z,3.30
2022-11-30T11:20:20.462Z,3.10
2022-11-30T11:21:20.476Z,2.70
2022-11-30T11:22:20.482Z,2.60
2022-11-30T11:23:20.458Z,3.90
2022-11-30T11:24:20.392Z,2.90
2022-11-30T11:25:20.413Z,3.00
2022-11-30T11:26:20.401Z,3.10
2022-11-30T11:27:20.633Z,2.90
2022-11-30T11:28:20.498Z,3.60
2022-11-30T11:29:43.116Z,2.70
2022-11-30T11:30:20.414Z,4.10
2022-11-30T11:31:20.471Z,3.20
2022-11-30T11:32:20.332Z,2.50
2022-11-30T11:33:20.339Z,3.30
2022-11-30T11:34:20.289Z,2.40
2022-11-30T11:35:20.270Z,2.70
2022-11-30T11:36:21.200Z,3.10
2022-11-30T11:37:21.860Z,3.90
2022-11-30T11:38:20.286Z,3.90
2022-11-30T11:39:20.337Z,2.90
2022-11-30T11:40:20.259Z,5.00
2022-11-30T11:41:20.250Z,3.80
2022-11-30T11:42:22.185Z,2.60
2022-11-30T11:43:20.231Z,3.50
2022-11-30T11:44:20.202Z,3.30
2022-11-30T11:45:22.085Z,2.20
2022-11-30T11:46:20.391Z,4.30
2022-11-30T11:47:20.238Z,2.90
2022-11-30T11:48:23.576Z,3.30
2022-11-30T11:49:21.141Z,3.00
2022-11-30T11:50:31.689Z,4.20
2022-11-30T11:51:21.180Z,3.40
2022-11-30T11:52:20.216Z,3.70
2022-11-30T11:53:20.177Z,3.70
2022-11-30T11:54:20.690Z,4.00
2022-11-30T11:55:20.163Z,3.50
2022-11-30T11:56:20.177Z,3.80
2022-11-30T11:57:20.121Z,4.10
2022-11-30T11:58:20.059Z,5.70
2022-11-30T11:59:20.037Z,3.30
2022-11-30T12:00:20.034Z,3.90
2022-11-30T12:01:41.678Z,4.30
2022-11-30T12:02:21.148Z,3.20
2022-11-30T12:03:21.630Z,4.70
2022-11-30T12:04:20.373Z,3.10
2022-11-30T12:05:19.979Z,2.90
2022-11-30T12:06:19.949Z,4.20
2022-11-30T12:07:20.112Z,3.50
2022-11-30T12:08:19.966Z,3.20
2022-11-30T12:09:19.922Z,3.60
2022-11-30T12:10:50.812Z,3.20
2022-11-30T12:11:20.890Z,2.20
2022-11-30T12:12:21.694Z,3.00
2022-11-30T12:13:20.305Z,3.50
2022-11-30T12:14:19.857Z,3.60
2022-11-30T12:15:19.838Z,3.90
2022-11-30T12:16:19.978Z,3.60
2022-11-30T12:17:19.878Z,3.60
2022-11-30T12:18:24.033Z,3.80
2022-11-30T12:19:19.827Z,3.90
2022-11-30T12:20:19.810Z,3.40
2022-11-30T12:21:24.635Z,3.90
2022-11-30T12:22:19.786Z,3.80
2022-11-30T12:23:39.952Z,3.40
2022-11-30T12:24:19.746Z,4.30
2022-11-30T12:25:19.732Z,3.30
2022-11-30T12:26:19.724Z,3.90
2022-11-30T12:27:19.792Z,3.30
2022-11-30T12:28:19.742Z,2.90
2022-11-30T12:29:19.693Z,5.20
2022-11-30T12:30:24.617Z,5.40
2022-11-30T12:31:19.753Z,4.90
2022-11-30T12:32:19.684Z,3.30
2022-11-30T12:33:19.686Z,3.10
2022-11-30T12:34:19.661Z,3.50
2022-11-30T12:35:19.652Z,3.20
2022-11-30T12:36:19.616Z,3.90
2022-11-30T12:37:19.639Z,4.70
2022-11-30T12:38:20.142Z,4.30
2022-11-30T12:39:26.105Z,2.70
2022-11-30T12:40:19.613Z,4.00
2022-11-30T12:41:19.628Z,4.50
2022-11-30T12:42:19.565Z,2.90
2022-11-30T12:43:19.563Z,3.90
2022-11-30T12:44:19.530Z,3.40
2022-11-30T12:45:20.189Z,3.30
2022-11-30T12:46:19.587Z,4.00
2022-11-30T12:47:20.536Z,4.90
2022-11-30T12:49:30.457Z,5.00
2022-11-30T12:50:28.357Z,6.10
2022-11-30T12:51:30.113Z,3.60
2022-11-30T12:52:28.355Z,4.20
2022-11-30T12:53:28.343Z,3.10
2022-11-30T12:54:28.309Z,8.20
2022-11-30T12:55:28.318Z,3.30
2022-11-30T12:56:28.287Z,4.20
2022-11-30T12:57:28.612Z,4.70
2022-11-30T12:58:34.952Z,4.30
2022-11-30T12:59:28.257Z,5.40
2022-11-30T13:00:28.327Z,5.60
2022-11-30T13:01:28.574Z,5.60
2022-11-30T13:02:28.268Z,6.20
2022-11-30T13:03:28.269Z,7.70
2022-11-30T13:04:28.201Z,3.90
2022-11-30T13:05:28.187Z,3.50
2022-11-30T13:06:30.000Z,4.00
2022-11-30T13:07:29.436Z,3.10
2022-11-30T13:08:28.224Z,2.60